Time;durP1;ratioP1;P1;durP2;ratioP2;P2;SDS_P1;SDS_P2;PMS_P1;PMS_P2;Temp;Humidity;BMP_temperature;BMP_pressure;BME280_temperature;BME280_humidity;BME280_pressure;Samples;Min_cycle;Max_cycle;Signal;HPM_P1;HPM_P2
2024/04/04 00:01:09;;;;;;;4.60;0.75;;;12.00;99.90;;;;;;5029955;28;20041;-79
2024/04/04 00:03:38;;;;;;;4.68;0.90;;;12.00;99.90;;;;;;5029837;28;20018;-78
2024/04/04 00:06:07;;;;;;;4.70;1.00;;;12.00;99.90;;;;;;5019709;28;20045;-76
2024/04/04 00:08:33;;;;;;;2.88;0.80;;;12.00;99.90;;;;;;5029994;28;20021;-78
2024/04/04 00:11:13;;;;;;;5.38;0.98;;;12.00;99.90;;;;;;5029668;28;20112;-77
2024/04/04 00:13:38;;;;;;;3.40;0.77;;;12.00;99.90;;;;;;5030595;28;20044;-78
2024/04/04 00:16:04;;;;;;;3.90;0.60;;;12.00;99.90;;;;;;5028999;28;20029;-76
2024/04/04 00:18:31;;;;;;;6.30;0.60;;;12.00;99.90;;;;;;5026287;28;20029;-78
2024/04/04 00:20:57;;;;;;;4.15;0.80;;;12.10;99.90;;;;;;5029635;28;20029;-72
2024/04/04 00:23:23;;;;;;;1.90;0.90;;;12.00;99.90;;;;;;5030574;28;20036;-79
2024/04/04 00:25:49;;;;;;;4.97;0.70;;;12.00;99.90;;;;;;5016884;28;20553;-80
2024/04/04 00:28:14;;;;;;;2.33;0.70;;;12.10;99.90;;;;;;5022630;28;20030;-79
2024/04/04 00:30:40;;;;;;;2.63;0.63;;;12.00;99.90;;;;;;5030619;28;20109;-80
2024/04/04 00:33:06;;;;;;;5.47;0.90;;;12.00;99.90;;;;;;5029463;28;20064;-80
2024/04/04 00:35:31;;;;;;;1.88;0.80;;;12.00;99.90;;;;;;5033602;28;20021;-78
2024/04/04 00:37:57;;;;;;;3.33;1.00;;;11.90;99.90;;;;;;5040827;28;20037;-78
2024/04/04 00:40:23;;;;;;;5.07;0.80;;;11.80;99.90;;;;;;5030725;28;20021;-77
2024/04/04 00:42:52;;;;;;;4.50;0.50;;;11.80;99.90;;;;;;5024963;28;20438;-78
2024/04/04 00:45:20;;;;;;;2.63;0.77;;;11.70;99.90;;;;;;5030709;28;20352;-79
2024/04/04 00:47:47;;;;;;;2.72;0.60;;;11.60;99.90;;;;;;5029775;28;20059;-78
2024/04/04 00:50:14;;;;;;;4.57;1.10;;;11.50;99.90;;;;;;5031611;28;20045;-79
2024/04/04 00:52:41;;;;;;;1.85;0.70;;;11.50;99.90;;;;;;5032789;28;20033;-78
2024/04/04 00:55:07;;;;;;;2.03;0.75;;;11.30;99.90;;;;;;5022412;28;20053;-78
2024/04/04 00:57:33;;;;;;;5.10;0.90;;;11.20;99.90;;;;;;5032338;28;20096;-78
2024/04/04 00:59:59;;;;;;;4.47;1.05;;;11.10;99.90;;;;;;5025376;28;20036;-79
2024/04/04 01:02:25;;;;;;;3.05;0.90;;;11.00;99.90;;;;;;5029839;28;20117;-79
2024/04/04 01:04:50;;;;;;;2.53;0.90;;;11.00;99.90;;;;;;5028085;28;20068;-79
2024/04/04 01:07:17;;;;;;;3.72;0.90;;;10.90;99.90;;;;;;5032404;28;20043;-79
2024/04/04 01:09:43;;;;;;;3.30;0.80;;;10.80;99.90;;;;;;5033969;28;20034;-79
2024/04/04 01:12:09;;;;;;;2.97;0.98;;;10.70;99.90;;;;;;5031873;28;20775;-79
2024/04/04 01:14:35;;;;;;;3.92;1.00;;;10.70;99.90;;;;;;5031967;28;20027;-75
2024/04/04 01:17:01;;;;;;;3.30;0.90;;;10.60;99.90;;;;;;5031346;28;20387;-79
2024/04/04 01:19:27;;;;;;;2.22;0.80;;;10.60;99.90;;;;;;5022930;28;20026;-79
2024/04/04 01:21:52;;;;;;;2.38;0.70;;;10.60;99.90;;;;;;5031619;28;20033;-70
2024/04/04 01:24:18;;;;;;;2.90;0.90;;;10.70;99.90;;;;;;5032945;28;20028;-78
2024/04/04 01:26:44;;;;;;;2.40;0.60;;;10.80;99.90;;;;;;5032629;28;20425;-78
2024/04/04 01:29:09;;;;;;;3.50;0.50;;;10.80;99.90;;;;;;5028546;28;20051;-79
2024/04/04 01:31:35;;;;;;;2.58;0.70;;;10.80;99.90;;;;;;5042438;28;20033;-77
2024/04/04 01:34:01;;;;;;;5.45;1.35;;;10.80;99.90;;;;;;5028065;28;20045;-77
2024/04/04 01:36:26;;;;;;;2.58;0.90;;;10.70;99.90;;;;;;5032864;28;20018;-79
2024/04/04 01:38:52;;;;;;;4.75;0.88;;;10.70;99.90;;;;;;5033204;28;20489;-72
2024/04/04 01:41:18;;;;;;;7.10;0.68;;;10.70;99.90;;;;;;5032991;28;20304;-80
2024/04/04 01:43:44;;;;;;;4.03;0.90;;;10.80;99.90;;;;;;5033488;28;20163;-80
2024/04/04 01:46:10;;;;;;;4.25;0.82;;;10.80;99.90;;;;;;5031432;28;20026;-80
2024/04/04 01:48:36;;;;;;;5.38;0.65;;;10.90;99.90;;;;;;5031224;28;20104;-79
2024/04/04 01:51:02;;;;;;;3.05;0.50;;;11.00;99.90;;;;;;5029300;28;20037;-78
2024/04/04 01:53:27;;;;;;;3.00;0.85;;;11.10;99.90;;;;;;5025834;28;20026;-79
2024/04/04 01:55:59;;;;;;;2.90;0.60;;;11.10;99.90;;;;;;5030411;28;20367;-72
2024/04/04 01:58:25;;;;;;;2.55;0.50;;;11.20;99.90;;;;;;5032417;28;21203;-78
2024/04/04 02:00:50;;;;;;;1.65;0.73;;;11.30;99.90;;;;;;5032076;28;20025;-78
2024/04/04 02:03:16;;;;;;;2.72;1.08;;;11.20;99.90;;;;;;5031114;28;20441;-78
2024/04/04 02:05:42;;;;;;;2.90;0.73;;;11.30;99.90;;;;;;5029436;28;20132;-78
2024/04/04 02:08:07;;;;;;;2.17;0.55;;;11.30;99.90;;;;;;5036498;28;20033;-76
2024/04/04 02:10:33;;;;;;;2.47;0.50;;;11.40;99.90;;;;;;5046531;28;20077;-80
2024/04/04 02:12:59;;;;;;;2.08;0.50;;;11.50;99.90;;;;;;5045335;28;20034;-78
2024/04/04 02:15:26;;;;;;;3.70;1.13;;;11.50;99.90;;;;;;5046716;28;20040;-79
2024/04/04 02:17:53;;;;;;;2.33;0.70;;;11.50;99.90;;;;;;5044301;28;20105;-72
2024/04/04 02:20:19;;;;;;;5.15;0.68;;;11.50;99.90;;;;;;5039238;28;20043;-79
2024/04/04 02:22:45;;;;;;;2.53;0.52;;;11.50;99.90;;;;;;5045110;28;20105;-78
2024/04/04 02:25:10;;;;;;;6.15;0.90;;;11.50;99.90;;;;;;5046136;28;20029;-78
2024/04/04 02:27:36;;;;;;;3.30;0.98;;;11.50;99.90;;;;;;5043167;28;20081;-78
2024/04/04 02:30:02;;;;;;;5.50;0.70;;;11.60;99.90;;;;;;5041699;28;20021;-75
2024/04/04 02:32:28;;;;;;;3.97;1.05;;;11.70;99.90;;;;;;5031183;28;20025;-80
2024/04/04 02:34:55;;;;;;;7.15;1.15;;;11.60;99.90;;;;;;5031662;28;20045;-73
2024/04/04 02:37:20;;;;;;;3.58;0.73;;;11.60;99.90;;;;;;5031476;28;20025;-79
2024/04/04 02:39:46;;;;;;;2.95;0.70;;;11.70;99.90;;;;;;5025308;28;20156;-78
2024/04/04 02:42:12;;;;;;;3.40;0.82;;;11.70;99.90;;;;;;5030375;28;20112;-76
2024/04/04 02:44:38;;;;;;;4.28;0.57;;;11.60;99.90;;;;;;5031458;28;20033;-78
2024/04/04 02:47:04;;;;;;;4.65;0.73;;;11.60;99.90;;;;;;5030130;28;20025;-76
2024/04/04 02:49:29;;;;;;;2.92;0.82;;;11.50;99.90;;;;;;5031481;28;20116;-76
2024/04/04 02:51:55;;;;;;;3.20;0.80;;;11.50;99.90;;;;;;5021442;28;20105;-78
2024/04/04 02:54:21;;;;;;;3.40;0.60;;;11.50;99.90;;;;;;5027118;28;20033;-78
2024/04/04 02:56:47;;;;;;;2.47;0.70;;;11.60;99.90;;;;;;5029251;28;20524;-76
2024/04/04 02:59:13;;;;;;;1.40;0.93;;;11.60;99.90;;;;;;5021079;28;20570;-78
2024/04/04 03:01:39;;;;;;;8.02;1.08;;;11.70;99.90;;;;;;5031638;28;20079;-79
2024/04/04 03:04:04;;;;;;;2.20;0.63;;;11.70;99.90;;;;;;5027163;28;20072;-76
2024/04/04 03:06:30;;;;;;;3.20;1.02;;;11.70;99.90;;;;;;5028702;28;20029;-79
2024/04/04 03:08:56;;;;;;;2.03;0.73;;;11.70;99.90;;;;;;5031015;28;20033;-73
2024/04/04 03:11:22;;;;;;;1.60;0.50;;;11.70;99.90;;;;;;5030309;28;20034;-78
2024/04/04 03:13:47;;;;;;;3.90;0.80;;;11.70;99.90;;;;;;5051589;28;20093;-72
2024/04/04 03:16:13;;;;;;;4.95;0.70;;;11.70;99.90;;;;;;5051743;28;20037;-73
2024/04/04 03:18:38;;;;;;;2.88;0.60;;;11.70;99.90;;;;;;5054856;28;20033;-75
2024/04/04 03:21:04;;;;;;;3.45;0.63;;;11.80;99.90;;;;;;5053938;28;20037;-76
2024/04/04 03:23:30;;;;;;;4.18;0.50;;;11.80;99.90;;;;;;5054919;28;20018;-75
2024/04/04 03:25:56;;;;;;;1.50;0.65;;;11.70;99.90;;;;;;5035836;28;20062;-76
2024/04/04 03:28:22;;;;;;;3.78;0.82;;;11.60;99.90;;;;;;5034395;28;20356;-79
2024/04/04 03:30:48;;;;;;;4.78;1.23;;;11.50;99.90;;;;;;5026527;28;20092;-80
2024/04/04 03:33:13;;;;;;;4.32;0.98;;;11.40;99.90;;;;;;5026304;28;20080;-80
2024/04/04 03:35:39;;;;;;;3.15;0.60;;;11.30;99.90;;;;;;5031455;28;20026;-79
2024/04/04 03:38:05;;;;;;;3.30;0.68;;;11.30;99.90;;;;;;5034328;28;20085;-73
2024/04/04 03:40:33;;;;;;;4.43;0.82;;;11.30;99.90;;;;;;5043980;28;20057;-79
2024/04/04 03:43:02;;;;;;;2.88;0.90;;;11.30;99.90;;;;;;5029413;28;20120;-75
2024/04/04 03:45:28;;;;;;;1.23;0.60;;;11.30;99.90;;;;;;5028405;28;20109;-78
2024/04/04 03:47:54;;;;;;;2.72;0.68;;;11.30;99.90;;;;;;5030580;28;20037;-71
2024/04/04 03:50:20;;;;;;;1.35;0.60;;;11.30;99.90;;;;;;5028846;28;20025;-77
2024/04/04 03:52:45;;;;;;;2.38;0.73;;;11.30;99.90;;;;;;5028700;28;20029;-77
2024/04/04 03:55:11;;;;;;;2.22;0.60;;;11.30;99.90;;;;;;5027750;28;20029;-75
2024/04/04 03:57:37;;;;;;;3.35;0.70;;;11.20;99.90;;;;;;5028877;28;20022;-79
2024/04/04 04:00:06;;;;;;;2.05;0.70;;;11.10;99.90;;;;;;5027712;28;20025;-78
2024/04/04 04:02:32;;;;;;;2.10;0.88;;;11.10;99.90;;;;;;5026825;28;20033;-78
2024/04/04 04:04:57;;;;;;;4.60;0.90;;;11.10;99.90;;;;;;5026136;28;20057;-77
2024/04/04 04:07:23;;;;;;;2.03;0.70;;;11.00;99.90;;;;;;5027369;28;20026;-77
2024/04/04 04:09:48;;;;;;;2.70;0.70;;;11.00;99.90;;;;;;5035381;28;20433;-75
2024/04/04 04:12:14;;;;;;;5.75;1.10;;;11.10;99.90;;;;;;5030304;28;20112;-75
2024/04/04 04:14:39;;;;;;;2.50;0.60;;;11.00;99.90;;;;;;5034112;28;20477;-75
2024/04/04 04:17:05;;;;;;;3.28;0.85;;;11.00;99.90;;;;;;5036029;28;20038;-79
2024/04/04 04:19:31;;;;;;;2.75;0.73;;;11.10;99.90;;;;;;5032485;28;20025;-77
2024/04/04 04:21:56;;;;;;;1.38;0.50;;;11.10;99.90;;;;;;5029263;28;20036;-79
2024/04/04 04:24:22;;;;;;;1.67;0.60;;;11.20;99.90;;;;;;5033536;28;20040;-78
2024/04/04 04:26:49;;;;;;;1.52;0.68;;;11.20;99.90;;;;;;5036376;28;20203;-79
2024/04/04 04:29:17;;;;;;;2.78;0.63;;;11.20;99.90;;;;;;5042214;28;20170;-79
2024/04/04 04:31:43;;;;;;;3.10;0.90;;;11.20;99.90;;;;;;5034350;28;20021;-79
2024/04/04 04:34:09;;;;;;;2.70;0.68;;;11.20;99.90;;;;;;5022387;28;20025;-79
2024/04/04 04:36:52;;;;;;;3.33;1.08;;;11.20;99.90;;;;;;5034839;28;20029;-76
2024/04/04 04:39:18;;;;;;;3.63;0.63;;;11.20;99.90;;;;;;5042648;28;20044;-77
2024/04/04 04:41:44;;;;;;;1.17;0.50;;;11.10;99.90;;;;;;5039792;28;20104;-80
2024/04/04 04:44:09;;;;;;;1.90;0.50;;;11.10;99.90;;;;;;5029521;28;20026;-79
2024/04/04 04:46:35;;;;;;;3.22;0.70;;;11.00;99.90;;;;;;5036181;28;20075;-78
2024/04/04 04:49:00;;;;;;;2.03;0.63;;;11.00;99.90;;;;;;5028088;28;20378;-79
2024/04/04 04:51:26;;;;;;;1.75;0.57;;;11.00;99.90;;;;;;5032927;28;20112;-81
2024/04/04 04:53:52;;;;;;;1.90;0.73;;;11.00;99.90;;;;;;5033511;28;20040;-72
2024/04/04 04:56:18;;;;;;;0.85;0.40;;;10.90;99.90;;;;;;5023159;28;20037;-77
2024/04/04 04:58:44;;;;;;;3.08;0.68;;;10.90;99.90;;;;;;5033608;28;20033;-81
2024/04/04 05:01:10;;;;;;;3.08;0.90;;;10.90;99.90;;;;;;5032532;28;20108;-74
2024/04/04 05:03:36;;;;;;;3.53;0.70;;;11.00;99.90;;;;;;5032948;28;20030;-81
2024/04/04 05:06:02;;;;;;;2.92;0.70;;;11.00;99.90;;;;;;5027698;28;20405;-80
2024/04/04 05:08:27;;;;;;;3.58;0.80;;;11.10;99.90;;;;;;5037145;28;20037;-78
2024/04/04 05:10:53;;;;;;;2.10;0.77;;;11.10;99.90;;;;;;5032841;28;20087;-73
2024/04/04 05:13:19;;;;;;;6.18;0.80;;;11.10;99.90;;;;;;5024233;28;20487;-78
2024/04/04 05:15:55;;;;;;;5.28;1.05;;;11.10;99.90;;;;;;5032874;28;20049;-78
2024/04/04 05:18:23;;;;;;;4.10;1.00;;;11.10;99.90;;;;;;5031019;28;20451;-75
2024/04/04 05:20:57;;;;;;;4.13;0.65;;;11.20;99.90;;;;;;5024815;28;20025;-78
2024/04/04 05:23:23;;;;;;;4.32;1.17;;;11.20;99.90;;;;;;5033172;28;20047;-76
2024/04/04 05:25:48;;;;;;;6.35;0.80;;;11.20;99.90;;;;;;5032645;28;20335;-78
2024/04/04 05:28:14;;;;;;;2.53;0.98;;;11.20;99.90;;;;;;5029201;28;20160;-81
2024/04/04 05:30:39;;;;;;;2.42;0.80;;;11.20;99.90;;;;;;5027629;28;20470;-77
2024/04/04 05:33:05;;;;;;;4.78;0.90;;;11.20;99.90;;;;;;5031519;28;20033;-75
2024/04/04 05:35:31;;;;;;;5.78;1.27;;;11.20;99.90;;;;;;5010302;28;20792;-76
2024/04/04 05:37:57;;;;;;;4.68;1.40;;;11.30;99.90;;;;;;5031782;28;20025;-75
2024/04/04 05:40:23;;;;;;;4.03;0.95;;;11.30;99.90;;;;;;5033064;28;20056;-78
2024/04/04 05:42:50;;;;;;;4.88;1.00;;;11.40;99.90;;;;;;5036527;28;20036;-80
2024/04/04 05:45:15;;;;;;;4.63;1.10;;;11.60;99.90;;;;;;5025755;28;20125;-79
2024/04/04 05:47:41;;;;;;;5.70;1.10;;;11.50;99.90;;;;;;5024226;28;20466;-83
2024/04/04 05:50:07;;;;;;;2.95;0.68;;;11.60;99.90;;;;;;5031974;28;20510;-73
2024/04/04 05:52:32;;;;;;;7.57;1.00;;;11.60;99.90;;;;;;5031680;28;20041;-77
2024/04/04 05:54:59;;;;;;;2.78;0.80;;;11.70;99.90;;;;;;5032218;28;20510;-75
2024/04/04 05:57:25;;;;;;;5.97;1.17;;;11.70;99.90;;;;;;5032002;28;20438;-77
2024/04/04 05:59:51;;;;;;;2.65;0.65;;;11.70;99.90;;;;;;5032258;28;20030;-78
2024/04/04 06:02:16;;;;;;;4.70;1.08;;;11.70;99.90;;;;;;5031674;28;20061;-78
2024/04/04 06:04:43;;;;;;;8.25;1.25;;;11.80;99.90;;;;;;5026268;28;20046;-78
2024/04/04 06:07:09;;;;;;;2.40;1.10;;;11.90;99.90;;;;;;5028228;28;20509;-76
2024/04/04 06:09:35;;;;;;;5.05;1.00;;;12.00;99.90;;;;;;5022594;28;20133;-76
2024/04/04 06:12:01;;;;;;;3.45;0.93;;;12.20;99.90;;;;;;5030331;28;20116;-84
2024/04/04 06:14:27;;;;;;;5.72;1.25;;;12.30;99.90;;;;;;5029280;28;20354;-78
2024/04/04 06:16:52;;;;;;;5.38;1.17;;;12.50;99.90;;;;;;5027600;28;20026;-73
2024/04/04 06:19:18;;;;;;;8.10;1.77;;;12.60;99.90;;;;;;5035354;28;20451;-77
2024/04/04 06:21:44;;;;;;;9.77;1.73;;;12.80;99.90;;;;;;5019699;28;20038;-77
2024/04/04 06:24:09;;;;;;;6.70;1.48;;;12.90;99.90;;;;;;5034023;28;20057;-77
2024/04/04 06:26:35;;;;;;;7.22;1.17;;;12.90;99.90;;;;;;5023752;28;20450;-74
2024/04/04 06:29:00;;;;;;;7.18;1.52;;;13.00;99.90;;;;;;5023803;28;20056;-74
2024/04/04 06:31:26;;;;;;;6.10;1.20;;;13.20;99.90;;;;;;5030684;28;20493;-75
2024/04/04 06:33:52;;;;;;;6.78;1.20;;;13.30;99.90;;;;;;5029014;28;20029;-73
2024/04/04 06:36:18;;;;;;;7.15;1.33;;;13.30;99.90;;;;;;5028923;28;20454;-78
2024/04/04 06:38:45;;;;;;;6.22;1.33;;;13.40;99.90;;;;;;5026433;28;20087;-77
2024/04/04 06:41:11;;;;;;;7.25;1.15;;;13.60;99.90;;;;;;5030891;28;20033;-81
2024/04/04 06:43:37;;;;;;;8.30;1.70;;;13.60;99.90;;;;;;5031590;28;20025;-82
2024/04/04 06:46:02;;;;;;;5.35;1.20;;;13.70;99.90;;;;;;5029853;28;20083;-74
2024/04/04 06:48:28;;;;;;;8.15;1.88;;;13.80;99.90;;;;;;5025392;28;20041;-80
2024/04/04 06:50:54;;;;;;;6.30;1.20;;;13.90;99.90;;;;;;5029595;28;20033;-75
2024/04/04 06:53:19;;;;;;;8.68;1.33;;;13.90;99.90;;;;;;5030976;28;20086;-77
2024/04/04 06:55:45;;;;;;;9.73;1.33;;;13.90;99.90;;;;;;5019971;28;20034;-77
2024/04/04 06:58:13;;;;;;;7.18;1.30;;;13.90;99.90;;;;;;5024725;28;20030;-76
2024/04/04 07:00:39;;;;;;;7.85;1.63;;;13.80;99.90;;;;;;5029901;28;20356;-75
2024/04/04 07:03:05;;;;;;;7.05;1.52;;;13.90;99.90;;;;;;5029540;28;20044;-77
2024/04/04 07:05:30;;;;;;;7.85;1.60;;;13.90;99.90;;;;;;5030464;28;20045;-76
2024/04/04 07:07:56;;;;;;;11.50;1.80;;;14.00;99.90;;;;;;5027412;28;20025;-73
2024/04/04 07:10:22;;;;;;;4.70;1.08;;;14.00;99.90;;;;;;5030383;28;20044;-77
2024/04/04 07:12:47;;;;;;;9.45;1.60;;;14.20;99.90;;;;;;5028844;28;20120;-77
2024/04/04 07:15:13;;;;;;;11.25;1.90;;;14.40;99.90;;;;;;5030302;28;20029;-77
2024/04/04 07:17:38;;;;;;;7.63;1.95;;;14.70;99.90;;;;;;5027375;28;20120;-75
2024/04/04 07:20:05;;;;;;;12.35;2.72;;;14.90;99.90;;;;;;5022622;28;20084;-77
2024/04/04 07:22:31;;;;;;;6.57;1.63;;;15.10;99.90;;;;;;5012682;28;20061;-75
2024/04/04 07:24:56;;;;;;;8.32;1.75;;;15.20;99.90;;;;;;5021356;28;20114;-76
2024/04/04 07:27:22;;;;;;;7.22;1.45;;;15.20;99.90;;;;;;5023249;28;20145;-76
2024/04/04 07:29:48;;;;;;;8.20;1.55;;;15.30;99.90;;;;;;5021533;28;20045;-76
2024/04/04 07:32:13;;;;;;;9.85;2.03;;;15.30;99.90;;;;;;5024414;28;20045;-77
2024/04/04 07:34:39;;;;;;;8.85;2.05;;;15.30;99.90;;;;;;5028345;28;20477;-77
2024/04/04 07:37:04;;;;;;;7.82;1.48;;;15.20;99.90;;;;;;5025096;28;20040;-77
2024/04/04 07:39:33;;;;;;;4.35;1.60;;;15.20;99.90;;;;;;5024398;28;20056;-76
2024/04/04 07:41:59;;;;;;;5.60;2.05;;;15.10;99.90;;;;;;5025757;28;20025;-78
2024/04/04 07:44:25;;;;;;;7.68;1.38;;;15.00;99.90;;;;;;5026062;28;20402;-79
2024/04/04 07:46:52;;;;;;;6.85;1.77;;;14.90;99.90;;;;;;5024097;28;20029;-79
2024/04/04 07:49:18;;;;;;;5.65;1.52;;;14.80;99.90;;;;;;5019929;28;20040;-77
2024/04/04 07:51:44;;;;;;;10.77;1.55;;;14.60;99.90;;;;;;5025732;28;20026;-75
2024/04/04 07:54:10;;;;;;;12.13;2.13;;;14.30;99.90;;;;;;5028361;28;20387;-76
2024/04/04 07:56:36;;;;;;;5.50;1.40;;;14.20;99.90;;;;;;5023428;28;20080;-76
2024/04/04 07:59:02;;;;;;;10.02;1.88;;;14.20;99.90;;;;;;5025735;28;20040;-77
2024/04/04 08:01:27;;;;;;;6.55;1.90;;;14.20;99.90;;;;;;5030195;28;20139;-78
2024/04/04 08:03:53;;;;;;;9.00;1.67;;;14.30;99.90;;;;;;5026646;28;20420;-74
2024/04/04 08:06:19;;;;;;;9.65;1.60;;;14.40;99.90;;;;;;5032040;28;20088;-78
2024/04/04 08:08:45;;;;;;;7.85;2.05;;;14.50;99.90;;;;;;5030438;28;20080;-78
2024/04/04 08:11:15;;;;;;;10.10;1.55;;;14.60;99.90;;;;;;5032721;28;20475;-76
2024/04/04 08:13:44;;;;;;;6.32;1.50;;;14.70;99.90;;;;;;5030453;28;20041;-77
2024/04/04 08:16:10;;;;;;;4.45;1.65;;;14.80;99.90;;;;;;5028625;28;20048;-79
2024/04/04 08:18:36;;;;;;;8.13;1.42;;;14.80;99.90;;;;;;5033126;28;20053;-77
2024/04/04 08:21:02;;;;;;;9.00;1.90;;;14.90;99.90;;;;;;5025805;28;20455;-76
2024/04/04 08:23:30;;;;;;;6.65;1.58;;;14.80;99.90;;;;;;5032659;28;20030;-79
2024/04/04 08:25:59;;;;;;;6.40;1.33;;;14.70;99.90;;;;;;5032456;28;20037;-76
2024/04/04 08:28:26;;;;;;;6.72;1.60;;;14.70;99.90;;;;;;5033232;28;20120;-78
2024/04/04 08:31:02;;;;;;;9.32;1.55;;;14.60;99.90;;;;;;5033554;28;20025;-78
2024/04/04 08:33:29;;;;;;;7.05;1.50;;;14.50;99.90;;;;;;5033194;28;20025;-78
2024/04/04 08:35:55;;;;;;;7.68;1.42;;;14.50;99.90;;;;;;5030090;28;20050;-77
2024/04/04 08:38:21;;;;;;;7.50;1.67;;;14.50;99.90;;;;;;5028012;28;20021;-77
2024/04/04 08:40:48;;;;;;;7.90;1.27;;;14.50;99.90;;;;;;5033564;28;20025;-77
2024/04/04 08:43:16;;;;;;;9.10;1.80;;;14.50;99.90;;;;;;5031894;28;20044;-78
2024/04/04 08:45:49;;;;;;;5.28;1.30;;;14.40;99.90;;;;;;5028474;28;20025;-75
2024/04/04 08:48:16;;;;;;;6.80;1.27;;;14.50;99.90;;;;;;5032215;28;20021;-77
2024/04/04 08:50:46;;;;;;;8.32;1.70;;;14.40;99.90;;;;;;5031294;28;20025;-76
2024/04/04 08:53:21;;;;;;;7.32;1.20;;;14.40;99.90;;;;;;5031259;28;20055;-75
2024/04/04 08:55:50;;;;;;;6.82;1.40;;;14.50;99.90;;;;;;5029870;28;20036;-79
2024/04/04 08:58:16;;;;;;;6.30;1.20;;;14.50;99.90;;;;;;5029011;28;20084;-77
2024/04/04 09:00:43;;;;;;;4.63;1.15;;;14.60;99.90;;;;;;5032668;28;20076;-75
2024/04/04 09:03:09;;;;;;;5.68;1.55;;;14.60;99.90;;;;;;5031221;28;20101;-78
2024/04/04 09:05:35;;;;;;;6.38;1.33;;;14.60;99.90;;;;;;5027664;28;20220;-77
2024/04/04 09:08:04;;;;;;;6.63;1.40;;;14.60;99.90;;;;;;5029549;28;20056;-77
2024/04/04 09:10:30;;;;;;;2.92;1.00;;;14.70;99.90;;;;;;5030338;28;20036;-76
2024/04/04 09:13:09;;;;;;;8.45;1.60;;;14.70;99.90;;;;;;5026786;28;20040;-79
2024/04/04 09:15:37;;;;;;;7.70;1.80;;;14.80;99.90;;;;;;5031954;28;20478;-77
2024/04/04 09:18:04;;;;;;;7.03;1.27;;;14.80;99.90;;;;;;5031231;28;20385;-77
2024/04/04 09:20:38;;;;;;;5.47;1.27;;;14.70;99.90;;;;;;5029305;28;20041;-78
2024/04/04 09:23:04;;;;;;;6.88;1.25;;;14.70;99.90;;;;;;5031490;28;20109;-77
2024/04/04 09:25:31;;;;;;;7.60;1.30;;;14.80;99.90;;;;;;5032416;28;20030;-77
2024/04/04 09:28:00;;;;;;;5.90;1.30;;;14.90;99.90;;;;;;5027222;28;20371;-77
2024/04/04 09:30:29;;;;;;;6.82;1.38;;;15.00;99.90;;;;;;5032245;28;20105;-76
2024/04/04 09:32:55;;;;;;;4.43;1.40;;;15.10;99.90;;;;;;5030993;28;20434;-77
2024/04/04 09:35:22;;;;;;;5.18;1.65;;;15.20;99.90;;;;;;5032200;28;20022;-78
2024/04/04 09:37:49;;;;;;;6.30;1.90;;;15.20;99.90;;;;;;5031759;28;20033;-78
2024/04/04 09:40:16;;;;;;;7.38;1.90;;;15.20;99.90;;;;;;5024320;28;20513;-78
2024/04/04 09:42:42;;;;;;;5.38;1.20;;;15.20;99.90;;;;;;5031483;28;20052;-78
2024/04/04 09:45:12;;;;;;;4.63;1.25;;;15.10;99.90;;;;;;5025510;28;20026;-76
2024/04/04 09:47:42;;;;;;;;;;;15.10;99.90;;;;;;5024974;28;20045;-79
2024/04/04 09:50:09;;;;;;;5.87;1.47;;;15.20;99.90;;;;;;5039122;28;19905;-78
2024/04/04 09:52:37;;;;;;;6.75;1.50;;;15.20;99.90;;;;;;5047662;28;20125;-79
2024/04/04 09:55:29;;;;;;;7.55;1.50;;;15.30;99.90;;;;;;5031198;28;20021;-77
2024/04/04 09:57:56;;;;;;;6.07;1.25;;;15.40;99.90;;;;;;5025602;28;20379;-78
2024/04/04 10:00:27;;;;;;;5.97;1.27;;;15.40;99.90;;;;;;5032042;28;20029;-79
2024/04/04 10:02:56;;;;;;;3.75;1.42;;;15.30;99.90;;;;;;5020636;28;20025;-72
2024/04/04 10:05:32;;;;;;;5.32;1.27;;;15.30;99.90;;;;;;5031575;28;20080;-77
2024/04/04 10:08:08;;;;;;;5.68;1.27;;;15.20;99.90;;;;;;5025389;28;20048;-78
2024/04/04 10:10:34;;;;;;;5.18;1.40;;;15.00;99.90;;;;;;5021244;28;20025;-79
2024/04/04 10:13:05;;;;;;;5.55;1.30;;;14.90;99.90;;;;;;5027619;28;20045;-75
2024/04/04 10:15:46;;;;;;;9.52;1.80;;;14.80;99.90;;;;;;5031325;28;20489;-76
2024/04/04 10:18:12;;;;;;;5.32;1.20;;;14.60;99.90;;;;;;5027965;28;20072;-77
2024/04/04 10:20:43;;;;;;;8.02;1.48;;;14.50;99.90;;;;;;5023704;28;20455;-76
2024/04/04 10:23:13;;;;;;;5.43;1.20;;;14.30;99.90;;;;;;5026728;28;20033;-78
2024/04/04 10:25:42;;;;;;;6.50;1.55;;;14.20;99.90;;;;;;5026492;28;20033;-77
2024/04/04 10:28:08;;;;;;;8.02;1.70;;;14.20;99.90;;;;;;5024036;28;20021;-75
2024/04/04 10:30:37;;;;;;;6.00;1.10;;;14.20;99.90;;;;;;5026430;28;20514;-75
2024/04/04 10:33:14;;;;;;;6.23;1.17;;;14.20;99.90;;;;;;5030570;28;20351;-77
2024/04/04 10:35:40;;;;;;;5.95;1.42;;;14.20;99.90;;;;;;5028842;28;20418;-76
2024/04/04 10:38:12;;;;;;;6.05;1.20;;;14.20;99.90;;;;;;5026817;28;20435;-78
2024/04/04 10:40:38;;;;;;;5.82;1.58;;;14.10;99.90;;;;;;5031112;28;20214;-76
2024/04/04 10:43:06;;;;;;;5.55;1.40;;;14.20;99.90;;;;;;5030059;28;20075;-78
2024/04/04 10:45:31;;;;;;;4.90;1.20;;;14.30;99.90;;;;;;5030781;28;20053;-75
2024/04/04 10:47:58;;;;;;;5.40;1.38;;;14.40;99.90;;;;;;5029498;28;20103;-77
2024/04/04 10:50:29;;;;;;;5.88;1.27;;;14.50;99.90;;;;;;5025187;28;20427;-75
2024/04/04 10:52:55;;;;;;;7.80;1.40;;;14.70;99.90;;;;;;5025104;28;20166;-77
2024/04/04 10:55:21;;;;;;;8.35;1.45;;;14.90;99.90;;;;;;5035380;28;20155;-76
2024/04/04 10:57:53;;;;;;;4.60;1.30;;;15.10;99.90;;;;;;5030347;28;20061;-76
2024/04/04 11:00:21;;;;;;;4.32;1.10;;;15.30;99.90;;;;;;5030360;28;20032;-76
2024/04/04 11:02:48;;;;;;;6.72;1.08;;;15.30;99.90;;;;;;5029961;28;20470;-76
2024/04/04 11:05:13;;;;;;;5.72;1.00;;;15.40;99.90;;;;;;5030376;28;20383;-77
2024/04/04 11:07:42;;;;;;;6.10;1.35;;;15.30;99.90;;;;;;5031809;28;20061;-77
2024/04/04 11:10:10;;;;;;;7.88;1.30;;;15.30;99.90;;;;;;5027970;28;20110;-77
2024/04/04 11:12:39;;;;;;;5.78;1.25;;;15.30;99.90;;;;;;5023438;28;20555;-77
2024/04/04 11:15:06;;;;;;;6.63;1.00;;;15.30;99.90;;;;;;5025758;28;20295;-77
2024/04/04 11:17:36;;;;;;;5.60;1.45;;;15.20;99.90;;;;;;5022843;28;20087;-75
2024/04/04 11:20:08;;;;;;;3.17;1.05;;;15.20;99.90;;;;;;5029764;28;20113;-79
2024/04/04 11:22:35;;;;;;;7.93;1.40;;;15.20;99.90;;;;;;5019931;28;20390;-76
2024/04/04 11:25:02;;;;;;;6.03;1.33;;;15.20;99.90;;;;;;5023247;28;20048;-76
2024/04/04 11:27:28;;;;;;;6.97;1.48;;;15.20;99.90;;;;;;5026873;28;20025;-79
2024/04/04 11:29:54;;;;;;;5.72;1.08;;;15.30;99.90;;;;;;5022612;28;20033;-75
2024/04/04 11:32:19;;;;;;;4.55;1.70;;;15.40;99.90;;;;;;5023845;28;20068;-79
2024/04/04 11:34:46;;;;;;;4.88;1.42;;;15.60;99.90;;;;;;5029761;28;20435;-76
2024/04/04 11:37:12;;;;;;;2.63;1.10;;;15.70;99.90;;;;;;5019905;28;20113;-79
2024/04/04 11:39:38;;;;;;;6.28;1.67;;;15.80;99.90;;;;;;5024776;28;20025;-78
2024/04/04 11:42:04;;;;;;;4.03;1.20;;;16.00;99.90;;;;;;5015398;28;20045;-77
2024/04/04 11:44:29;;;;;;;3.88;1.02;;;15.80;99.90;;;;;;5026507;28;20029;-77
2024/04/04 11:46:56;;;;;;;8.50;1.23;;;15.60;99.90;;;;;;5026017;28;20038;-78
2024/04/04 11:49:21;;;;;;;6.85;1.30;;;15.50;99.90;;;;;;5029880;28;20109;-77
2024/04/04 11:51:47;;;;;;;4.38;1.30;;;15.50;99.90;;;;;;5024976;28;20460;-75
2024/04/04 11:54:13;;;;;;;8.30;1.50;;;15.50;99.90;;;;;;5021722;28;20105;-77
2024/04/04 11:56:43;;;;;;;5.60;1.27;;;15.40;99.90;;;;;;5029354;28;20017;-78
2024/04/04 11:59:08;;;;;;;10.32;1.45;;;15.50;99.90;;;;;;5032377;28;20049;-78
2024/04/04 12:01:34;;;;;;;5.15;1.23;;;15.60;99.90;;;;;;5022386;28;20068;-77
2024/04/04 12:04:00;;;;;;;8.65;1.85;;;15.80;99.90;;;;;;5029675;28;20025;-76
2024/04/04 12:06:25;;;;;;;5.90;1.10;;;15.90;99.90;;;;;;5029366;28;20026;-76
2024/04/04 12:08:51;;;;;;;7.32;1.20;;;16.00;99.90;;;;;;5029729;28;20033;-78
2024/04/04 12:11:17;;;;;;;4.55;1.08;;;16.20;99.90;;;;;;5029207;28;20038;-75
2024/04/04 12:13:43;;;;;;;6.18;1.25;;;16.70;99.90;;;;;;5030147;28;20033;-77
2024/04/04 12:16:08;;;;;;;7.00;1.48;;;17.20;99.90;;;;;;5016001;28;20490;-78
2024/04/04 12:21:18;;;;;;;4.40;1.27;;;17.80;99.90;;;;;;5027040;28;20091;-77
2024/04/04 12:23:45;;;;;;;4.95;1.15;;;17.80;99.90;;;;;;5027459;28;20037;-77
2024/04/04 12:26:12;;;;;;;3.75;1.05;;;17.80;99.90;;;;;;5022346;28;20052;-77
2024/04/04 12:28:38;;;;;;;4.85;1.67;;;17.70;99.90;;;;;;5025148;28;20041;-76
2024/04/04 12:31:03;;;;;;;4.30;1.00;;;17.60;99.90;;;;;;5022737;28;20040;-75
2024/04/04 12:33:30;;;;;;;3.55;1.02;;;17.60;99.90;;;;;;5030030;28;20045;-77
2024/04/04 12:35:56;;;;;;;3.58;1.20;;;17.40;99.90;;;;;;5016814;28;20034;-78
2024/04/04 12:38:21;;;;;;;2.45;0.80;;;17.30;99.90;;;;;;5029970;28;20084;-77
2024/04/04 12:40:47;;;;;;;4.10;0.82;;;17.20;99.90;;;;;;5024131;28;20018;-79
2024/04/04 12:43:13;;;;;;;7.25;1.40;;;17.20;99.90;;;;;;5028478;28;20095;-76
2024/04/04 12:45:39;;;;;;;4.50;1.25;;;17.40;99.90;;;;;;5033574;28;20052;-78
2024/04/04 12:48:05;;;;;;;2.05;0.90;;;17.60;99.90;;;;;;5032051;28;20202;-77